Time;durP1;ratioP1;P1;durP2;ratioP2;P2;SDS_P1;SDS_P2;PMS_P1;PMS_P2;Temp;Humidity;BMP_temperature;BMP_pressure;BME280_temperature;BME280_humidity;BME280_pressure;Samples;Min_cycle;Max_cycle;Signal;HPM_P1;HPM_P2
2024/02/05 00:00:44;;;;;;;4.65;1.83;;;;;;;-145.63;100.00;61273.97;5012529;28;20085;-64
2024/02/05 00:03:10;;;;;;;3.25;1.63;;;;;;;-145.63;100.00;61273.97;5013582;28;20116;-65
2024/02/05 00:05:36;;;;;;;2.75;1.67;;;;;;;-145.63;100.00;61273.97;5028164;28;20110;-64
2024/02/05 00:08:03;;;;;;;3.40;1.73;;;;;;;-145.63;100.00;61273.97;5027490;28;20498;-64
2024/02/05 00:10:29;;;;;;;4.15;1.80;;;;;;;-145.63;100.00;61273.97;5035450;28;20031;-64
2024/02/05 00:12:55;;;;;;;4.25;1.70;;;;;;;-145.63;100.00;61273.97;5031067;28;20068;-64
2024/02/05 00:15:21;;;;;;;2.45;1.40;;;;;;;-145.63;100.00;61273.97;5031176;28;20029;-65
2024/02/05 00:17:46;;;;;;;3.22;1.60;;;;;;;-145.63;100.00;61273.97;5011673;28;20093;-63
2024/02/05 00:20:12;;;;;;;3.63;1.73;;;;;;;-145.63;100.00;61273.97;5029801;28;20037;-64
2024/02/05 00:22:39;;;;;;;2.80;1.42;;;;;;;-145.63;100.00;61273.97;5026661;28;20057;-65
2024/02/05 00:25:05;;;;;;;4.25;1.40;;;;;;;-145.63;100.00;61273.97;5031496;28;20392;-64
2024/02/05 00:27:32;;;;;;;2.55;1.35;;;;;;;-145.63;100.00;61273.97;5019007;28;20057;-64
2024/02/05 00:29:58;;;;;;;2.83;1.60;;;;;;;-145.63;100.00;61273.97;5031621;28;20048;-64
2024/02/05 00:32:24;;;;;;;3.25;1.48;;;;;;;-145.63;100.00;61273.97;5030375;28;20037;-64
2024/02/05 00:34:50;;;;;;;3.90;1.70;;;;;;;-145.63;100.00;61273.97;5016201;28;20045;-64
2024/02/05 00:37:17;;;;;;;4.07;1.20;;;;;;;-145.63;100.00;61273.97;5022371;28;20045;-65
2024/02/05 00:39:43;;;;;;;2.17;1.40;;;;;;;-145.63;100.00;61273.97;5032943;28;20044;-65
2024/02/05 00:42:08;;;;;;;2.13;1.10;;;;;;;-145.63;100.00;61273.97;5024264;28;20034;-65
2024/02/05 00:44:34;;;;;;;3.13;1.80;;;;;;;-145.63;100.00;61273.97;5034882;28;20025;-65
2024/02/05 00:47:01;;;;;;;7.05;2.25;;;;;;;-145.63;100.00;61273.97;5020223;28;20395;-64
2024/02/05 00:49:26;;;;;;;4.38;1.30;;;;;;;-145.63;100.00;61273.97;5030440;28;20029;-65
2024/02/05 00:51:52;;;;;;;7.22;1.60;;;;;;;-145.63;100.00;61273.97;5025794;28;20037;-64
2024/02/05 00:54:18;;;;;;;3.55;1.27;;;;;;;-145.63;100.00;61273.97;5017122;28;20471;-65
2024/02/05 00:56:43;;;;;;;3.58;1.42;;;;;;;-145.63;100.00;61273.97;5026685;28;20049;-63
2024/02/05 00:59:09;;;;;;;3.53;1.33;;;;;;;-145.63;100.00;61273.97;5017116;28;20061;-65
2024/02/05 01:01:35;;;;;;;1.73;1.10;;;;;;;-145.63;100.00;61273.97;5017791;28;20479;-67
2024/02/05 01:04:00;;;;;;;2.15;1.23;;;;;;;-145.63;100.00;61273.97;5024155;28;20034;-64
2024/02/05 01:06:26;;;;;;;3.33;1.30;;;;;;;-145.63;100.00;61273.97;5021889;28;20064;-64
2024/02/05 01:08:52;;;;;;;2.35;1.45;;;;;;;-145.63;100.00;61273.97;5031549;28;20053;-65
2024/02/05 01:11:17;;;;;;;3.47;1.55;;;;;;;-145.63;100.00;61273.97;5033031;28;20048;-64
2024/02/05 01:13:43;;;;;;;6.22;1.65;;;;;;;-145.63;100.00;61273.97;5015221;28;20045;-65
2024/02/05 01:16:09;;;;;;;3.10;1.08;;;;;;;-145.63;100.00;61273.97;5016813;28;20041;-65
2024/02/05 01:18:36;;;;;;;4.65;1.60;;;;;;;-145.63;100.00;61273.97;5018968;28;20082;-64
2024/02/05 01:21:03;;;;;;;2.20;1.48;;;;;;;-145.63;100.00;61273.97;5028655;28;20037;-65
2024/02/05 01:23:29;;;;;;;3.90;1.40;;;;;;;-145.63;100.00;61273.97;5022897;28;20038;-66
2024/02/05 01:25:55;;;;;;;3.92;1.35;;;;;;;-145.63;100.00;61273.97;5025248;28;20398;-64
2024/02/05 01:28:21;;;;;;;3.55;1.38;;;;;;;-145.63;100.00;61273.97;5024169;28;20068;-64
2024/02/05 01:30:47;;;;;;;4.97;1.48;;;;;;;-145.63;100.00;61273.97;5027785;28;20033;-64
2024/02/05 01:33:12;;;;;;;3.97;1.40;;;;;;;-145.63;100.00;61273.97;5018420;28;20034;-64
2024/02/05 01:35:38;;;;;;;3.67;1.65;;;;;;;-145.63;100.00;61273.97;5015550;28;20022;-65
2024/02/05 01:38:04;;;;;;;3.08;1.63;;;;;;;-145.63;100.00;61273.97;5017096;28;20090;-64
2024/02/05 01:40:30;;;;;;;4.93;1.40;;;;;;;-145.63;100.00;61273.97;5025410;28;20368;-64
2024/02/05 01:42:56;;;;;;;4.90;1.73;;;;;;;-145.63;100.00;61273.97;5017662;28;20191;-65
2024/02/05 01:45:22;;;;;;;2.53;1.60;;;;;;;-145.63;100.00;61273.97;5030844;28;20041;-64
2024/02/05 01:47:48;;;;;;;5.45;1.70;;;;;;;-145.63;100.00;61273.97;5032156;28;20036;-64
2024/02/05 01:50:15;;;;;;;5.10;1.63;;;;;;;-145.63;100.00;61273.97;5023318;28;20670;-64
2024/02/05 01:52:48;;;;;;;4.97;1.98;;;;;;;-145.63;100.00;61273.97;5028208;28;20459;-66
2024/02/05 01:55:16;;;;;;;3.22;1.75;;;;;;;-145.63;100.00;61273.97;5023086;28;20041;-64
2024/02/05 01:57:44;;;;;;;5.30;1.73;;;;;;;-145.63;100.00;61273.97;5018432;28;20029;-65
2024/02/05 02:00:14;;;;;;;4.25;1.70;;;;;;;-145.63;100.00;61273.97;5031463;28;20033;-65
2024/02/05 02:02:41;;;;;;;4.72;1.60;;;;;;;-145.63;100.00;61273.97;5013230;28;20109;-65
2024/02/05 02:05:07;;;;;;;3.83;1.88;;;;;;;-145.63;100.00;61273.97;5026929;28;20556;-64
2024/02/05 02:07:33;;;;;;;3.78;1.70;;;;;;;-145.63;100.00;61273.97;5025343;28;20104;-64
2024/02/05 02:10:00;;;;;;;2.95;1.90;;;;;;;-145.63;100.00;61273.97;5030650;28;20025;-65
2024/02/05 02:12:26;;;;;;;6.75;2.05;;;;;;;-145.63;100.00;61273.97;5022354;28;20069;-64
2024/02/05 02:14:53;;;;;;;4.00;1.80;;;;;;;-145.63;100.00;61273.97;5032644;28;20033;-64
2024/02/05 02:17:22;;;;;;;5.18;1.92;;;;;;;-145.63;100.00;61273.97;5014681;28;20033;-64
2024/02/05 02:19:51;;;;;;;3.85;2.10;;;;;;;-145.63;100.00;61273.97;5017071;28;20400;-64
2024/02/05 02:22:36;;;;;;;2.50;1.60;;;;;;;-145.63;100.00;61273.97;5023245;28;20055;-64
2024/02/05 02:25:02;;;;;;;3.78;1.58;;;;;;;-145.63;100.00;61273.97;5029513;28;20116;-63
2024/02/05 02:27:30;;;;;;;4.72;1.70;;;;;;;-145.63;100.00;61273.97;5019292;28;20029;-64
2024/02/05 02:29:57;;;;;;;4.25;1.65;;;;;;;-145.63;100.00;61273.97;5032056;28;20022;-63
2024/02/05 02:32:56;;;;;;;3.58;1.80;;;;;;;-145.63;100.00;61273.97;5014294;28;20344;-64
2024/02/05 02:35:29;;;;;;;3.90;1.58;;;;;;;-145.63;100.00;61273.97;5030590;28;20049;-63
2024/02/05 02:38:01;;;;;;;3.15;1.70;;;;;;;-145.63;100.00;61273.97;5032493;28;20099;-65
2024/02/05 02:40:33;;;;;;;5.18;2.22;;;;;;;-145.63;100.00;61273.97;5031963;28;20048;-63
2024/02/05 02:43:05;;;;;;;3.40;1.77;;;;;;;-145.63;100.00;61273.97;5025244;28;20088;-63
2024/02/05 02:45:32;;;;;;;3.97;1.98;;;;;;;-145.63;100.00;61273.97;5017235;28;20360;-63
2024/02/05 02:47:58;;;;;;;5.72;2.08;;;;;;;-145.63;100.00;61273.97;5013155;28;20367;-65
2024/02/05 02:50:24;;;;;;;3.28;1.85;;;;;;;-145.63;100.00;61273.97;5022397;28;20033;-64
2024/02/05 02:52:50;;;;;;;6.13;2.10;;;;;;;-145.63;100.00;61273.97;5032372;28;20033;-64
2024/02/05 02:55:15;;;;;;;5.72;2.47;;;;;;;-145.63;100.00;61273.97;5026931;28;20026;-65
2024/02/05 02:57:41;;;;;;;5.72;1.90;;;;;;;-145.63;100.00;61273.97;5017387;28;20079;-64
2024/02/05 03:00:09;;;;;;;3.72;1.95;;;;;;;-145.63;100.00;61273.97;5028526;28;20053;-63
2024/02/05 03:02:35;;;;;;;3.25;2.05;;;;;;;-145.63;100.00;61273.97;5012211;28;20030;-64
2024/02/05 03:05:04;;;;;;;6.20;2.50;;;;;;;-145.63;100.00;61273.97;5025730;28;20060;-64
2024/02/05 03:07:34;;;;;;;7.28;2.30;;;;;;;-145.63;100.00;61273.97;5026572;28;20033;-64
2024/02/05 03:10:05;;;;;;;6.68;2.30;;;;;;;-145.63;100.00;61273.97;5033173;28;20047;-63
2024/02/05 03:12:32;;;;;;;5.50;2.15;;;;;;;-145.63;100.00;61273.97;5016142;28;20308;-64
2024/02/05 03:15:02;;;;;;;4.85;2.20;;;;;;;-145.63;100.00;61273.97;5031635;28;20029;-63
2024/02/05 03:17:32;;;;;;;6.65;2.15;;;;;;;-145.63;100.00;61273.97;5010999;28;20041;-64
2024/02/05 03:19:58;;;;;;;5.95;2.25;;;;;;;-145.63;100.00;61273.97;5026834;28;20040;-64
2024/02/05 03:22:24;;;;;;;5.72;2.22;;;;;;;-145.63;100.00;61273.97;5021091;28;20528;-65
2024/02/05 03:24:49;;;;;;;5.10;2.45;;;;;;;-145.63;100.00;61273.97;5017574;28;20641;-65
2024/02/05 03:27:15;;;;;;;5.57;2.10;;;;;;;-145.63;100.00;61273.97;5024429;28;20029;-65
2024/02/05 03:29:41;;;;;;;7.28;2.60;;;;;;;-145.63;100.00;61273.97;5032049;28;20033;-65
2024/02/05 03:32:07;;;;;;;7.22;2.85;;;;;;;-145.63;100.00;61273.97;5030120;28;20029;-65
2024/02/05 03:34:33;;;;;;;5.35;2.70;;;;;;;-145.63;100.00;61273.97;5020212;28;20026;-63
2024/02/05 03:36:58;;;;;;;5.57;2.42;;;;;;;-145.63;100.00;61273.97;5018706;28;20541;-65
2024/02/05 03:39:26;;;;;;;5.50;2.42;;;;;;;-145.63;100.00;61273.97;5031628;28;20071;-65
2024/02/05 03:41:52;;;;;;;5.68;2.20;;;;;;;-145.63;100.00;61273.97;5020556;28;20371;-66
2024/02/05 03:44:18;;;;;;;5.95;2.30;;;;;;;-145.63;100.00;61273.97;5028594;28;20041;-66
2024/02/05 03:46:43;;;;;;;3.88;2.25;;;;;;;-145.63;100.00;61273.97;5024132;28;20053;-66
2024/02/05 03:49:09;;;;;;;5.35;2.72;;;;;;;-145.63;100.00;61273.97;5018790;28;20109;-65
2024/02/05 03:51:34;;;;;;;6.85;2.70;;;;;;;-145.63;100.00;61273.97;5015093;28;20030;-65
2024/02/05 03:54:04;;;;;;;4.70;2.70;;;;;;;-145.63;100.00;61273.97;5030925;28;20032;-65
2024/02/05 03:56:30;;;;;;;4.43;2.10;;;;;;;-145.63;100.00;61273.97;5012329;28;20476;-65
2024/02/05 03:58:56;;;;;;;7.35;3.13;;;;;;;-145.63;100.00;61273.97;5025768;28;20045;-64
2024/02/05 04:01:23;;;;;;;5.38;2.60;;;;;;;-145.63;100.00;61273.97;5029779;28;20030;-64
2024/02/05 04:03:48;;;;;;;3.58;2.35;;;;;;;-145.63;100.00;61273.97;5016711;28;20667;-63
2024/02/05 04:06:14;;;;;;;4.32;2.85;;;;;;;-145.63;100.00;61273.97;5029526;28;20033;-65
2024/02/05 04:08:40;;;;;;;7.40;2.80;;;;;;;-145.63;100.00;61273.97;5028558;28;20049;-63
2024/02/05 04:11:06;;;;;;;9.27;2.88;;;;;;;-145.63;100.00;61273.97;5027572;28;20531;-64
2024/02/05 04:13:31;;;;;;;4.53;2.95;;;;;;;-145.63;100.00;61273.97;5029046;28;20052;-64
2024/02/05 04:15:57;;;;;;;5.68;3.00;;;;;;;-145.63;100.00;61273.97;5034263;28;20529;-63
2024/02/05 04:18:23;;;;;;;8.18;2.88;;;;;;;-145.63;100.00;61273.97;5022903;28;20522;-63
2024/02/05 04:20:52;;;;;;;5.90;3.15;;;;;;;-145.63;100.00;61273.97;5031503;28;20030;-64
2024/02/05 04:23:19;;;;;;;5.57;2.88;;;;;;;-145.63;100.00;61273.97;5020309;28;20452;-64
2024/02/05 04:25:45;;;;;;;5.40;2.67;;;;;;;-145.63;100.00;61273.97;5024502;28;20483;-63
2024/02/05 04:28:11;;;;;;;6.82;3.03;;;;;;;-145.63;100.00;61273.97;5023157;28;20156;-63
2024/02/05 04:30:37;;;;;;;6.72;2.85;;;;;;;-145.63;100.00;61273.97;5032983;28;20029;-63
2024/02/05 04:33:04;;;;;;;6.00;2.92;;;;;;;-145.63;100.00;61273.97;5020707;28;20110;-64
2024/02/05 04:35:29;;;;;;;6.20;2.95;;;;;;;-145.63;100.00;61273.97;5033469;28;20026;-66
2024/02/05 04:37:55;;;;;;;8.10;3.45;;;;;;;-145.63;100.00;61273.97;5034515;28;20057;-63
2024/02/05 04:40:21;;;;;;;4.10;2.92;;;;;;;-145.63;100.00;61273.97;5034757;28;20041;-62
2024/02/05 04:42:46;;;;;;;7.15;3.28;;;;;;;-145.63;100.00;61273.97;5031563;28;20034;-64
2024/02/05 04:45:12;;;;;;;8.27;3.78;;;;;;;-145.63;100.00;61273.97;5014894;28;20435;-66
2024/02/05 04:47:38;;;;;;;4.85;2.88;;;;;;;-145.63;100.00;61273.97;5014744;28;20121;-68
2024/02/05 04:50:04;;;;;;;6.68;2.67;;;;;;;-145.63;100.00;61273.97;5023581;28;20127;-66
2024/02/05 04:52:30;;;;;;;9.32;3.45;;;;;;;-145.63;100.00;61273.97;5027667;28;20087;-64
2024/02/05 04:54:56;;;;;;;7.25;3.50;;;;;;;-145.63;100.00;61273.97;5022745;28;20483;-63
2024/02/05 04:57:21;;;;;;;7.65;3.10;;;;;;;-145.63;100.00;61273.97;5016411;28;20048;-64
2024/02/05 04:59:48;;;;;;;7.03;3.00;;;;;;;-145.63;100.00;61273.97;5027326;28;20114;-63
2024/02/05 05:02:13;;;;;;;10.05;3.30;;;;;;;-145.63;100.00;61273.97;5027063;28;20039;-65
2024/02/05 05:04:42;;;;;;;6.55;3.05;;;;;;;-145.63;100.00;61273.97;5030198;28;20402;-67
2024/02/05 05:07:08;;;;;;;8.35;3.28;;;;;;;-145.63;100.00;61273.97;5028010;28;20037;-65
2024/02/05 05:09:33;;;;;;;6.72;3.28;;;;;;;-145.63;100.00;61273.97;5031552;28;20025;-66
2024/02/05 05:11:59;;;;;;;7.38;3.40;;;;;;;-145.63;100.00;61273.97;5027451;28;20105;-65
2024/02/05 05:14:25;;;;;;;6.95;3.65;;;;;;;-145.63;100.00;61273.97;5032625;28;20152;-64
2024/02/05 05:16:50;;;;;;;6.82;3.47;;;;;;;-145.63;100.00;61273.97;5028758;28;20029;-64
2024/02/05 05:19:17;;;;;;;5.68;3.63;;;;;;;-145.63;100.00;61273.97;5032740;28;20041;-64
2024/02/05 05:21:43;;;;;;;7.10;3.70;;;;;;;-145.63;100.00;61273.97;5031809;28;20041;-63
2024/02/05 05:24:09;;;;;;;10.25;3.72;;;;;;;-145.63;100.00;61273.97;5027578;28;20034;-64
2024/02/05 05:26:36;;;;;;;8.38;3.47;;;;;;;-145.63;100.00;61273.97;5026419;28;20021;-65
2024/02/05 05:29:03;;;;;;;7.45;3.92;;;;;;;-145.63;100.00;61273.97;5020075;28;20481;-66
2024/02/05 05:31:29;;;;;;;9.00;4.07;;;;;;;-145.63;100.00;61273.97;5017208;28;20412;-65
2024/02/05 05:33:55;;;;;;;12.35;3.65;;;;;;;-145.63;100.00;61273.97;5028279;28;20030;-65
2024/02/05 05:36:21;;;;;;;9.10;4.18;;;;;;;-145.63;100.00;61273.97;5014512;28;20049;-65
2024/02/05 05:38:46;;;;;;;9.00;3.88;;;;;;;-145.63;100.00;61273.97;5033556;28;20456;-64
2024/02/05 05:41:12;;;;;;;8.75;4.00;;;;;;;-145.63;100.00;61273.97;5032652;28;20364;-65
2024/02/05 05:43:37;;;;;;;7.88;4.18;;;;;;;-145.63;100.00;61273.97;5024648;28;20029;-65
2024/02/05 05:46:03;;;;;;;6.82;3.78;;;;;;;-145.63;100.00;61273.97;5022095;28;20037;-65
2024/02/05 05:48:29;;;;;;;7.82;3.60;;;;;;;-145.63;100.00;61273.97;5015540;28;20371;-65
2024/02/05 05:50:55;;;;;;;8.20;3.78;;;;;;;-145.63;100.00;61273.97;5019675;28;20033;-67
2024/02/05 05:53:20;;;;;;;7.65;3.90;;;;;;;-145.63;100.00;61273.97;5030073;28;20034;-65
2024/02/05 05:55:48;;;;;;;11.75;4.90;;;;;;;-145.63;100.00;61273.97;5022167;28;20033;-66
2024/02/05 05:58:14;;;;;;;9.20;4.13;;;;;;;-145.63;100.00;61273.97;5028384;28;20102;-64
2024/02/05 06:00:39;;;;;;;7.93;3.63;;;;;;;-145.63;100.00;61273.97;5029678;28;20722;-65
2024/02/05 06:03:06;;;;;;;9.05;4.10;;;;;;;-145.63;100.00;61273.97;5027117;28;20057;-66
2024/02/05 06:05:32;;;;;;;8.60;4.07;;;;;;;-145.63;100.00;61273.97;5018601;28;20431;-65
2024/02/05 06:07:57;;;;;;;14.40;4.63;;;;;;;-145.63;100.00;61273.97;5028470;28;20080;-65
2024/02/05 06:10:23;;;;;;;10.05;3.95;;;;;;;-145.63;100.00;61273.97;5031825;28;20093;-65
2024/02/05 06:12:49;;;;;;;11.40;4.38;;;;;;;-145.63;100.00;61273.97;5031677;28;20033;-64
2024/02/05 06:15:15;;;;;;;7.78;4.38;;;;;;;-145.63;100.00;61273.97;5022261;28;20651;-66
2024/02/05 06:17:41;;;;;;;7.45;4.55;;;;;;;-145.63;100.00;61273.97;5028419;28;20087;-64
2024/02/05 06:20:07;;;;;;;14.98;4.82;;;;;;;-145.63;100.00;61273.97;5022030;28;20034;-65
2024/02/05 06:22:34;;;;;;;8.35;4.90;;;;;;;-145.63;100.00;61273.97;5020015;28;20029;-64
2024/02/05 06:25:00;;;;;;;10.80;4.95;;;;;;;-145.63;100.00;61273.97;5021512;28;20036;-69
2024/02/05 06:27:25;;;;;;;12.10;4.35;;;;;;;-145.63;100.00;61273.97;5028126;28;20025;-66
2024/02/05 06:29:51;;;;;;;11.60;5.18;;;;;;;-145.63;100.00;61273.97;5029953;28;20025;-66
2024/02/05 06:32:17;;;;;;;11.38;4.65;;;;;;;-145.63;100.00;61273.97;5025257;28;20038;-65
2024/02/05 06:34:44;;;;;;;7.90;5.20;;;;;;;-145.63;100.00;61273.97;5028834;28;20409;-66
2024/02/05 06:37:10;;;;;;;10.38;4.90;;;;;;;-145.63;100.00;61273.97;5026847;28;20050;-67
2024/02/05 06:39:39;;;;;;;7.88;5.05;;;;;;;-145.63;100.00;61273.97;5014828;28;20038;-65
2024/02/05 06:42:04;;;;;;;8.20;4.47;;;;;;;-145.63;100.00;61273.97;5032116;28;20116;-64
2024/02/05 06:44:30;;;;;;;8.57;4.03;;;;;;;-145.63;100.00;61273.97;5031697;28;20184;-66
2024/02/05 06:46:56;;;;;;;6.70;3.97;;;;;;;-145.63;100.00;61273.97;5029346;28;20034;-64
2024/02/05 06:49:22;;;;;;;8.05;4.00;;;;;;;-145.63;100.00;61273.97;5025669;28;20117;-66
2024/02/05 06:51:47;;;;;;;7.32;3.65;;;;;;;-145.63;100.00;61273.97;5031622;28;20069;-65
2024/02/05 06:54:13;;;;;;;5.95;4.00;;;;;;;-145.63;100.00;61273.97;5031658;28;20078;-66
2024/02/05 06:56:39;;;;;;;8.30;3.75;;;;;;;-145.63;100.00;61273.97;5024750;28;20069;-66
2024/02/05 06:59:05;;;;;;;7.60;3.70;;;;;;;-145.63;100.00;61273.97;5031806;28;20669;-65
2024/02/05 07:01:30;;;;;;;9.30;4.00;;;;;;;-145.63;100.00;61273.97;5028554;28;20025;-66
2024/02/05 07:03:56;;;;;;;6.93;4.05;;;;;;;-145.63;100.00;61273.97;5031597;28;20037;-65
2024/02/05 07:06:22;;;;;;;10.40;3.80;;;;;;;-145.63;100.00;61273.97;5021378;28;20066;-65
2024/02/05 07:08:47;;;;;;;9.23;4.22;;;;;;;-145.63;100.00;61273.97;5031897;28;20041;-66
2024/02/05 07:11:13;;;;;;;9.25;4.07;;;;;;;-145.63;100.00;61273.97;5025198;28;20033;-64
2024/02/05 07:13:39;;;;;;;9.15;4.50;;;;;;;-145.63;100.00;61273.97;5022390;28;20091;-66
2024/02/05 07:16:14;;;;;;;10.05;3.78;;;;;;;-145.63;100.00;61273.97;5029372;28;20029;-66
2024/02/05 07:18:41;;;;;;;8.50;4.05;;;;;;;-145.63;100.00;61273.97;5032076;28;20370;-65
2024/02/05 07:21:07;;;;;;;6.22;3.08;;;;;;;-145.63;100.00;61273.97;5031602;28;20378;-65
2024/02/05 07:23:33;;;;;;;7.47;3.45;;;;;;;-145.63;100.00;61273.97;5032882;28;20470;-68
2024/02/05 07:25:58;;;;;;;7.45;3.00;;;;;;;-145.63;100.00;61273.97;5029139;28;20026;-67
2024/02/05 07:28:24;;;;;;;7.68;3.17;;;;;;;-145.63;100.00;61273.97;5031234;28;20034;-67
2024/02/05 07:30:50;;;;;;;6.78;2.80;;;;;;;-145.63;100.00;61273.97;5029953;28;20651;-67
2024/02/05 07:33:15;;;;;;;7.18;3.45;;;;;;;-145.63;100.00;61273.97;5031480;28;20369;-66
2024/02/05 07:35:41;;;;;;;12.70;3.30;;;;;;;-145.63;100.00;61273.97;5028993;28;20452;-66
2024/02/05 07:38:07;;;;;;;10.57;2.60;;;;;;;-145.63;100.00;61273.97;5031170;28;20463;-66
2024/02/05 07:40:32;;;;;;;7.72;3.15;;;;;;;-145.63;100.00;61273.97;5029732;28;20030;-68
2024/02/05 07:42:58;;;;;;;7.25;3.00;;;;;;;-145.63;100.00;61273.97;5027660;28;20038;-66
2024/02/05 07:45:24;;;;;;;8.32;3.00;;;;;;;-145.63;100.00;61273.97;5031217;28;20383;-65
2024/02/05 07:47:49;;;;;;;8.75;3.40;;;;;;;-145.63;100.00;61273.97;5020027;28;20087;-66
2024/02/05 07:50:15;;;;;;;7.97;3.05;;;;;;;-145.63;100.00;61273.97;5023513;28;20548;-68
2024/02/05 07:52:40;;;;;;;11.93;3.53;;;;;;;-145.63;100.00;61273.97;5031257;28;20394;-69
2024/02/05 07:55:06;;;;;;;6.63;3.70;;;;;;;-145.63;100.00;61273.97;5028045;28;20463;-68
2024/02/05 07:57:32;;;;;;;9.98;3.10;;;;;;;-145.63;100.00;61273.97;5027967;28;20032;-70
2024/02/05 07:59:58;;;;;;;8.48;3.10;;;;;;;-145.63;100.00;61273.97;5026232;28;20036;-67
2024/02/05 08:02:25;;;;;;;8.38;3.50;;;;;;;-145.63;100.00;61273.97;5031881;28;20029;-70
2024/02/05 08:04:51;;;;;;;11.23;3.83;;;;;;;-145.63;100.00;61273.97;5026417;28;20029;-71
2024/02/05 08:07:29;;;;;;;9.98;3.80;;;;;;;-145.63;100.00;61273.97;5025304;28;20045;-67
2024/02/05 08:09:54;;;;;;;9.93;3.75;;;;;;;-145.63;100.00;61273.97;5033240;28;20113;-69
2024/02/05 08:12:20;;;;;;;10.07;3.83;;;;;;;-145.63;100.00;61273.97;5025012;28;20085;-70
2024/02/05 08:14:46;;;;;;;7.05;3.72;;;;;;;-145.63;100.00;61273.97;5034449;28;20029;-70
2024/02/05 08:17:12;;;;;;;6.47;3.53;;;;;;;-145.63;100.00;61273.97;5035083;28;20029;-69
2024/02/05 08:19:37;;;;;;;7.13;3.47;;;;;;;-145.63;100.00;61273.97;5029985;28;20076;-70
2024/02/05 08:22:03;;;;;;;9.02;3.85;;;;;;;-145.63;100.00;61273.97;5027438;28;20056;-73
2024/02/05 08:24:29;;;;;;;11.18;4.30;;;;;;;-145.63;100.00;61273.97;5035287;28;20056;-71
2024/02/05 08:26:54;;;;;;;12.48;4.22;;;;;;;-145.63;100.00;61273.97;5027624;28;20045;-69
2024/02/05 08:29:22;;;;;;;13.00;4.75;;;;;;;-145.63;100.00;61273.97;5023956;28;20605;-68
2024/02/05 08:31:49;;;;;;;8.82;3.95;;;;;;;-145.63;100.00;61273.97;5025389;28;20032;-71
2024/02/05 08:34:15;;;;;;;8.25;3.58;;;;;;;-145.63;100.00;61273.97;5020123;28;20033;-70
2024/02/05 08:36:41;;;;;;;7.53;3.20;;;;;;;-145.63;100.00;61273.97;5030756;28;20069;-66
2024/02/05 08:39:12;;;;;;;8.40;3.70;;;;;;;-145.63;100.00;61273.97;5025001;28;20041;-69
2024/02/05 08:41:38;;;;;;;;;;;;;;;-145.63;100.00;61273.97;5026070;28;20462;-68
2024/02/05 08:44:03;;;;;;;9.70;3.53;;;;;;;-145.63;100.00;61273.97;5023767;28;19924;-69
2024/02/05 08:46:29;;;;;;;6.50;3.88;;;;;;;-145.63;100.00;61273.97;5025358;28;20030;-69
2024/02/05 08:48:55;;;;;;;8.65;4.03;;;;;;;-145.63;100.00;61273.97;5029071;28;20022;-68
2024/02/05 08:51:22;;;;;;;10.95;3.80;;;;;;;-145.63;100.00;61273.97;5021850;28;20544;-71
2024/02/05 08:53:48;;;;;;;10.85;3.85;;;;;;;-145.63;100.00;61273.97;5028053;28;20104;-71
2024/02/05 08:56:13;;;;;;;10.35;3.45;;;;;;;-145.63;100.00;61273.97;5025300;28;20929;-70
2024/02/05 08:58:39;;;;;;;9.15;4.13;;;;;;;-145.63;100.00;61273.97;5028762;28;20091;-70
2024/02/05 09:01:05;;;;;;;8.38;4.25;;;;;;;-145.63;100.00;61273.97;5031538;28;20026;-68
2024/02/05 09:03:31;;;;;;;8.77;4.20;;;;;;;-145.63;100.00;61273.97;5014898;28;20125;-70
2024/02/05 09:05:57;;;;;;;11.25;4.45;;;;;;;-145.63;100.00;61273.97;5023950;28;20112;-69
2024/02/05 09:08:22;;;;;;;10.02;4.13;;;;;;;-145.63;100.00;61273.97;5025187;28;20088;-68
2024/02/05 09:10:48;;;;;;;10.48;4.90;;;;;;;-145.63;100.00;61273.97;5030651;28;20793;-67
2024/02/05 09:13:15;;;;;;;9.80;4.40;;;;;;;-145.63;100.00;61273.97;5033740;28;20545;-70
2024/02/05 09:15:42;;;;;;;9.73;4.65;;;;;;;-145.63;100.00;61273.97;5033306;28;20025;-65
2024/02/05 09:18:09;;;;;;;11.13;5.13;;;;;;;-145.63;100.00;61273.97;5017085;28;20034;-67
2024/02/05 09:20:36;;;;;;;12.68;5.00;;;;;;;-145.63;100.00;61273.97;5030125;28;20025;-67
2024/02/05 09:23:02;;;;;;;13.38;4.97;;;;;;;-145.63;100.00;61273.97;5033356;28;20040;-66
2024/02/05 09:25:28;;;;;;;10.13;4.50;;;;;;;-145.63;100.00;61273.97;5021022;28;20048;-67
2024/02/05 09:27:54;;;;;;;9.13;4.60;;;;;;;-145.63;100.00;61273.97;5026713;28;20022;-68
2024/02/05 09:30:21;;;;;;;10.13;5.10;;;;;;;-145.63;100.00;61273.97;5014277;28;20042;-66
2024/02/05 09:32:50;;;;;;;20.92;12.45;;;;;;;-145.63;100.00;61273.97;5018086;28;20175;-67
2024/02/05 09:35:16;;;;;;;10.15;5.20;;;;;;;-145.63;100.00;61273.97;5027950;28;20025;-68
2024/02/05 09:37:41;;;;;;;9.65;4.50;;;;;;;-145.63;100.00;61273.97;5018323;28;20427;-65
2024/02/05 09:40:07;;;;;;;9.48;4.53;;;;;;;-145.63;100.00;61273.97;5017462;28;20297;-66
2024/02/05 09:42:34;;;;;;;12.85;4.53;;;;;;;-145.63;100.00;61273.97;5028766;28;20037;-66
2024/02/05 09:45:01;;;;;;;8.13;4.30;;;;;;;-145.63;100.00;61273.97;5032292;28;20477;-66
2024/02/05 09:47:30;;;;;;;8.70;4.10;;;;;;;-145.63;100.00;61273.97;5033220;28;20052;-66
2024/02/05 09:49:59;;;;;;;7.65;4.82;;;;;;;-145.63;100.00;61273.97;5026208;28;20415;-67
2024/02/05 09:52:27;;;;;;;13.10;5.20;;;;;;;-145.63;100.00;61273.97;5019948;28;20398;-67
2024/02/05 09:54:54;;;;;;;8.35;4.65;;;;;;;-145.63;100.00;61273.97;5033477;28;20049;-68
2024/02/05 09:57:23;;;;;;;9.80;4.75;;;;;;;-145.63;100.00;61273.97;5024761;28;20510;-67
2024/02/05 09:59:49;;;;;;;9.15;4.03;;;;;;;-145.63;100.00;61273.97;5033641;28;20045;-68
2024/02/05 10:02:16;;;;;;;11.27;4.15;;;;;;;-145.63;100.00;61273.97;5024694;28;20087;-66
2024/02/05 10:04:43;;;;;;;9.00;3.88;;;;;;;-145.63;100.00;61273.97;5022344;28;20029;-68
2024/02/05 10:07:14;;;;;;;8.73;3.78;;;;;;;-145.63;100.00;61273.97;5027986;28;20378;-67
2024/02/05 10:09:41;;;;;;;8.38;4.03;;;;;;;-145.63;100.00;61273.97;5033430;28;20040;-67
2024/02/05 10:12:12;;;;;;;7.65;4.00;;;;;;;-145.63;100.00;61273.97;5039000;28;20602;-67
2024/02/05 10:14:40;;;;;;;11.67;4.63;;;;;;;-145.63;100.00;61273.97;5030688;28;20037;-67
2024/02/05 10:17:06;;;;;;;8.80;4.32;;;;;;;-145.63;100.00;61273.97;5026579;28;20029;-68
2024/02/05 10:19:34;;;;;;;10.70;4.65;;;;;;;-145.63;100.00;61273.97;5020181;28;20029;-68
2024/02/05 10:22:04;;;;;;;10.10;3.60;;;;;;;-145.63;100.00;61273.97;5026677;28;20037;-68
2024/02/05 10:24:31;;;;;;;7.90;3.45;;;;;;;-145.63;100.00;61273.97;5032982;28;20638;-68
2024/02/05 10:26:58;;;;;;;13.32;3.80;;;;;;;-145.63;100.00;61273.97;5027949;28;20505;-67
2024/02/05 10:29:24;;;;;;;11.77;3.92;;;;;;;-145.63;100.00;61273.97;5027150;28;20021;-67
2024/02/05 10:31:53;;;;;;;5.90;3.30;;;;;;;-145.63;100.00;61273.97;5032331;28;20095;-67
2024/02/05 10:34:24;;;;;;;8.85;3.58;;;;;;;-145.63;100.00;61273.97;5032137;28;20045;-65
2024/02/05 10:36:50;;;;;;;9.57;3.50;;;;;;;-145.63;100.00;61273.97;5031444;28;20068;-68
2024/02/05 10:39:22;;;;;;;8.85;3.53;;;;;;;-145.63;100.00;61273.97;5032298;28;20435;-66
2024/02/05 10:41:49;;;;;;;7.78;3.15;;;;;;;-145.63;100.00;61273.97;5014437;28;20037;-66
2024/02/05 10:44:15;;;;;;;6.78;3.45;;;;;;;-145.63;100.00;61273.97;5031191;28;20053;-66
2024/02/05 10:46:41;;;;;;;5.60;2.97;;;;;;;-145.63;100.00;61273.97;5031311;28;20033;-66
2024/02/05 10:49:08;;;;;;;7.30;3.30;;;;;;;-145.63;100.00;61273.97;5028289;28;20140;-67
2024/02/05 10:51:37;;;;;;;6.57;2.97;;;;;;;-145.63;100.00;61273.97;5030712;28;20112;-67
2024/02/05 10:54:05;;;;;;;7.28;2.67;;;;;;;-145.63;100.00;61273.97;5031261;28;20061;-67
2024/02/05 10:56:31;;;;;;;6.35;3.25;;;;;;;-145.63;100.00;61273.97;5032105;28;20040;-68
2024/02/05 10:58:59;;;;;;;6.00;2.83;;;;;;;-145.63;100.00;61273.97;5028068;28;20033;-68
2024/02/05 11:01:36;;;;;;;7.60;3.10;;;;;;;-145.63;100.00;61273.97;5031835;28;20029;-67
2024/02/05 11:04:03;;;;;;;8.43;2.80;;;;;;;-145.63;100.00;61273.97;5015419;28;20057;-68
2024/02/05 11:06:38;;;;;;;4.55;2.53;;;;;;;-145.63;100.00;61273.97;5031253;28;20059;-67